Time;durP1;ratioP1;P1;durP2;ratioP2;P2;SDS_P1;SDS_P2;PMS_P1;PMS_P2;Temp;Humidity;BMP_temperature;BMP_pressure;BME280_temperature;BME280_humidity;BME280_pressure;Samples;Min_cycle;Max_cycle;Signal;HPM_P1;HPM_P2
2023/02/23 00:00:30;;;;;;;36.27;32.23;;;13.10;99.90;;;;;;5029767;28;20471;-68
2023/02/23 00:02:59;;;;;;;38.07;32.40;;;13.10;99.90;;;;;;5031276;28;20779;-68
2023/02/23 00:05:27;;;;;;;35.90;30.50;;;13.10;99.90;;;;;;5031730;28;20409;-68
2023/02/23 00:07:53;;;;;;;39.07;32.80;;;13.00;99.90;;;;;;5031355;28;20806;-69
2023/02/23 00:10:24;;;;;;;38.90;33.40;;;13.10;99.90;;;;;;5028420;28;20446;-68
2023/02/23 00:12:51;;;;;;;40.20;32.00;;;13.00;99.90;;;;;;5032350;28;20408;-68
2023/02/23 00:15:16;;;;;;;40.20;33.13;;;13.00;99.90;;;;;;5030467;28;20436;-68
2023/02/23 00:17:42;;;;;;;36.90;32.53;;;13.00;99.90;;;;;;5029510;28;20451;-68
2023/02/23 00:20:10;;;;;;;38.40;33.60;;;13.00;99.90;;;;;;5030651;28;20515;-68
2023/02/23 00:22:40;;;;;;;40.60;34.93;;;13.00;99.90;;;;;;5029214;28;20505;-68
2023/02/23 00:25:10;;;;;;;41.07;34.37;;;13.00;99.90;;;;;;5030337;28;20432;-68
2023/02/23 00:27:42;;;;;;;42.17;34.60;;;13.00;99.90;;;;;;5030921;28;20444;-68
2023/02/23 00:30:12;;;;;;;39.37;34.40;;;13.00;99.90;;;;;;5031907;28;20521;-68
2023/02/23 00:32:38;;;;;;;41.10;34.57;;;13.00;99.90;;;;;;5031034;28;20434;-68
2023/02/23 00:35:10;;;;;;;35.67;31.53;;;13.00;99.90;;;;;;5030901;28;20432;-68
2023/02/23 00:37:36;;;;;;;37.73;33.00;;;13.00;99.90;;;;;;5030185;28;20493;-68
2023/02/23 00:40:10;;;;;;;39.83;34.50;;;13.00;99.90;;;;;;5030691;28;20451;-67
2023/02/23 00:42:36;;;;;;;44.03;34.40;;;13.00;99.90;;;;;;5031055;28;20874;-68
2023/02/23 00:45:07;;;;;;;40.00;33.50;;;13.00;99.90;;;;;;5026117;28;20497;-68
2023/02/23 00:47:34;;;;;;;41.67;35.27;;;13.00;99.90;;;;;;5029377;28;20181;-68
2023/02/23 00:50:00;;;;;;;41.97;36.00;;;13.00;99.90;;;;;;5034763;28;20918;-68
2023/02/23 00:52:25;;;;;;;43.63;34.70;;;13.00;99.90;;;;;;5031689;28;20530;-68
2023/02/23 00:54:51;;;;;;;39.27;33.47;;;13.00;99.90;;;;;;5034283;28;20270;-68
2023/02/23 00:57:17;;;;;;;45.47;36.50;;;13.10;99.90;;;;;;5034818;28;20181;-68
2023/02/23 00:59:42;;;;;;;43.07;35.70;;;13.10;99.90;;;;;;5033928;28;20180;-68
2023/02/23 01:02:08;;;;;;;48.10;36.27;;;13.10;99.90;;;;;;5033471;28;20205;-67
2023/02/23 01:04:34;;;;;;;42.30;35.70;;;13.10;99.90;;;;;;5035338;28;20236;-68
2023/02/23 01:07:02;;;;;;;42.80;34.47;;;13.10;99.90;;;;;;5034342;28;20231;-68
2023/02/23 01:09:28;;;;;;;44.63;34.93;;;13.00;99.90;;;;;;5033552;28;20235;-68
2023/02/23 01:11:55;;;;;;;38.37;32.80;;;13.20;99.90;;;;;;5033130;28;20450;-68
2023/02/23 01:14:22;;;;;;;45.60;34.23;;;13.10;99.90;;;;;;5034550;28;20624;-68
2023/02/23 01:16:48;;;;;;;42.40;35.87;;;13.10;99.90;;;;;;5032831;28;20426;-69
2023/02/23 01:19:13;;;;;;;43.90;36.10;;;13.10;99.90;;;;;;5033596;28;20454;-68
2023/02/23 01:21:41;;;;;;;44.07;34.50;;;13.00;99.90;;;;;;5034979;28;20207;-68
2023/02/23 01:24:07;;;;;;;45.03;36.20;;;13.00;99.90;;;;;;5032803;28;20276;-68
2023/02/23 01:26:36;;;;;;;43.63;35.57;;;13.00;99.90;;;;;;5033941;28;20437;-68
2023/02/23 01:29:07;;;;;;;41.90;34.80;;;13.00;99.90;;;;;;5032893;28;20428;-68
2023/02/23 01:31:34;;;;;;;44.47;35.30;;;13.00;99.90;;;;;;5035165;28;20432;-69
2023/02/23 01:34:02;;;;;;;41.80;34.03;;;13.00;99.90;;;;;;5033658;28;20827;-69
2023/02/23 01:36:31;;;;;;;38.67;33.47;;;12.90;99.90;;;;;;5032922;28;20700;-69
2023/02/23 01:38:58;;;;;;;40.00;34.07;;;12.90;99.90;;;;;;5034716;28;20507;-68
2023/02/23 01:41:26;;;;;;;43.87;34.70;;;12.90;99.90;;;;;;5032825;28;20578;-68
2023/02/23 01:44:04;;;;;;;43.30;34.30;;;12.90;99.90;;;;;;5031754;28;20469;-69
2023/02/23 01:46:35;;;;;;;40.40;33.83;;;12.90;99.90;;;;;;5032633;28;20428;-68
2023/02/23 01:49:02;;;;;;;45.30;35.50;;;12.90;99.90;;;;;;5014801;28;20755;-68
2023/02/23 01:51:33;;;;;;;40.73;33.87;;;12.90;99.90;;;;;;5024583;28;20431;-69
2023/02/23 01:54:27;;;;;;;41.90;33.53;;;12.90;99.90;;;;;;5031790;28;20935;-69
2023/02/23 01:56:56;;;;;;;43.40;35.57;;;12.90;99.90;;;;;;5030982;28;20442;-68
2023/02/23 01:59:32;;;;;;;41.50;35.43;;;12.90;99.90;;;;;;5033414;28;20914;-69
2023/02/23 02:01:58;;;;;;;41.47;35.23;;;12.90;99.90;;;;;;5031609;28;20486;-70
2023/02/23 02:04:24;;;;;;;46.10;36.90;;;12.90;99.90;;;;;;5032408;28;20428;-69
2023/02/23 02:06:52;;;;;;;46.33;38.00;;;12.90;99.90;;;;;;5033762;28;20176;-67
2023/02/23 02:09:24;;;;;;;40.40;34.77;;;12.90;99.90;;;;;;5033031;28;20484;-68
2023/02/23 02:11:53;;;;;;;42.03;35.30;;;12.90;99.90;;;;;;5030719;28;20444;-68
2023/02/23 02:14:28;;;;;;;41.13;34.40;;;12.80;99.90;;;;;;5032534;28;21290;-68
2023/02/23 02:17:12;;;;;;;41.60;35.30;;;12.90;99.90;;;;;;5032896;28;20399;-68
2023/02/23 02:20:25;;;;;;;51.07;36.90;;;12.80;99.90;;;;;;5032508;28;20463;-68
2023/02/23 02:23:11;;;;;;;43.30;36.00;;;12.80;99.90;;;;;;5032733;28;20462;-69
2023/02/23 02:25:49;;;;;;;46.73;36.07;;;12.80;99.90;;;;;;5031589;28;20936;-69
2023/02/23 02:28:53;;;;;;;50.63;37.93;;;12.80;99.90;;;;;;5033171;28;20781;-68
2023/02/23 02:31:40;;;;;;;47.93;38.30;;;12.80;99.90;;;;;;5033204;28;20439;-68
2023/02/23 02:34:42;;;;;;;45.40;37.17;;;12.80;99.90;;;;;;5032374;28;20961;-68
2023/02/23 02:37:41;;;;;;;46.40;37.93;;;12.80;99.90;;;;;;5032634;28;20439;-68
2023/02/23 02:40:52;;;;;;;51.67;39.00;;;12.80;99.90;;;;;;5029849;28;20931;-68
2023/02/23 02:43:55;;;;;;;43.50;36.13;;;12.80;99.90;;;;;;5030606;28;20479;-68
2023/02/23 02:46:29;;;;;;;44.67;35.90;;;12.80;99.90;;;;;;5031687;28;20431;-69
2023/02/23 02:49:05;;;;;;;46.53;36.63;;;12.80;99.90;;;;;;5029896;28;20842;-68
2023/02/23 02:51:54;;;;;;;46.83;37.60;;;12.80;99.90;;;;;;5029860;28;20778;-68
2023/02/23 02:54:39;;;;;;;48.90;35.70;;;12.80;99.90;;;;;;5031554;28;20786;-68
2023/02/23 02:57:07;;;;;;;45.30;36.10;;;12.80;99.90;;;;;;5031813;28;20435;-69
2023/02/23 04:17:41;;;;;;;44.47;36.70;;;12.60;99.90;;;;;;5030571;28;21042;-68
2023/02/23 04:20:10;;;;;;;44.67;35.77;;;12.60;99.90;;;;;;5032261;28;20909;-69
2023/02/23 04:22:36;;;;;;;46.20;36.97;;;12.60;99.90;;;;;;5030613;28;20829;-68
2023/02/23 04:25:02;;;;;;;48.70;37.17;;;12.70;99.90;;;;;;5033224;28;20431;-68
2023/02/23 04:27:27;;;;;;;51.57;40.07;;;12.60;99.90;;;;;;5033144;28;20254;-69
2023/02/23 04:29:53;;;;;;;50.80;39.07;;;12.60;99.90;;;;;;5034750;28;20438;-68
2023/02/23 04:32:19;;;;;;;48.80;37.80;;;12.60;99.90;;;;;;5033103;28;20653;-67
2023/02/23 04:34:45;;;;;;;45.77;37.07;;;12.60;99.90;;;;;;5034203;28;20176;-68
2023/02/23 04:37:12;;;;;;;46.87;37.40;;;12.60;99.90;;;;;;5030647;28;20437;-67
2023/02/23 04:39:38;;;;;;;49.60;38.27;;;12.60;99.90;;;;;;5023846;28;20435;-68
2023/02/23 04:42:04;;;;;;;51.47;38.60;;;12.60;99.90;;;;;;5034540;28;20484;-69
2023/02/23 04:44:29;;;;;;;48.63;38.00;;;12.70;99.90;;;;;;5035139;28;20420;-68
2023/02/23 04:46:56;;;;;;;50.17;39.13;;;12.60;99.90;;;;;;5034680;28;20469;-68
2023/02/23 04:49:22;;;;;;;48.17;38.07;;;12.60;99.90;;;;;;5033809;28;20184;-68
2023/02/23 04:51:48;;;;;;;52.53;40.07;;;12.60;99.90;;;;;;5033156;28;20439;-68
2023/02/23 04:54:14;;;;;;;49.87;39.30;;;12.60;99.90;;;;;;5034413;28;20513;-68
2023/02/23 04:56:40;;;;;;;50.77;37.40;;;12.60;99.90;;;;;;5033496;28;20754;-68
2023/02/23 04:59:06;;;;;;;49.00;39.20;;;12.60;99.90;;;;;;5034327;28;20431;-68
2023/02/23 05:01:31;;;;;;;48.13;39.40;;;12.60;99.90;;;;;;5033388;28;20221;-68
2023/02/23 05:03:59;;;;;;;48.87;37.60;;;12.60;99.90;;;;;;5034406;28;20191;-68
2023/02/23 05:06:25;;;;;;;52.37;39.77;;;12.60;99.90;;;;;;5034637;28;20426;-68
2023/02/23 05:08:51;;;;;;;50.13;40.27;;;12.60;99.90;;;;;;5034060;28;20436;-68
2023/02/23 05:11:17;;;;;;;51.83;39.57;;;12.60;99.90;;;;;;5034145;28;20525;-68
2023/02/23 05:13:42;;;;;;;48.27;39.00;;;12.60;99.90;;;;;;5034886;28;20183;-68
2023/02/23 05:16:08;;;;;;;47.97;38.13;;;12.60;99.90;;;;;;5033814;28;20436;-68
2023/02/23 05:18:34;;;;;;;52.67;40.50;;;12.60;99.90;;;;;;5032365;28;20258;-68
2023/02/23 05:21:07;;;;;;;53.97;40.77;;;12.60;99.90;;;;;;5033855;28;20174;-68
2023/02/23 05:23:33;;;;;;;54.83;39.30;;;12.60;99.90;;;;;;5033599;28;20242;-68
2023/02/23 05:26:03;;;;;;;51.83;39.30;;;12.60;99.90;;;;;;5033866;28;20455;-69
2023/02/23 05:28:29;;;;;;;50.60;38.07;;;12.60;99.90;;;;;;5032051;28;20518;-68
2023/02/23 05:30:54;;;;;;;51.57;38.20;;;12.60;99.90;;;;;;5034999;28;20493;-68
2023/02/23 05:33:20;;;;;;;51.77;38.97;;;12.60;99.90;;;;;;5033790;28;21013;-68
2023/02/23 05:35:47;;;;;;;49.47;38.07;;;12.60;99.90;;;;;;5033836;28;20189;-68
2023/02/23 05:38:13;;;;;;;51.50;38.40;;;12.60;99.90;;;;;;5032545;28;20192;-69
2023/02/23 05:40:39;;;;;;;51.13;38.83;;;12.60;99.90;;;;;;5032477;28;20486;-68
2023/02/23 05:43:05;;;;;;;49.17;38.47;;;12.60;99.90;;;;;;5030727;28;20954;-68
2023/02/23 05:45:32;;;;;;;54.43;40.53;;;12.60;99.90;;;;;;5032396;28;20541;-68
2023/02/23 05:47:58;;;;;;;51.07;39.40;;;12.60;99.90;;;;;;5032794;28;20422;-68
2023/02/23 05:50:24;;;;;;;53.97;38.93;;;12.60;99.90;;;;;;5033260;28;20531;-67
2023/02/23 05:52:50;;;;;;;50.27;38.13;;;12.60;99.90;;;;;;5031165;28;20449;-68
2023/02/23 05:55:16;;;;;;;52.97;38.63;;;12.60;99.90;;;;;;5033146;28;20515;-68
2023/02/23 05:57:42;;;;;;;50.93;38.57;;;12.60;99.90;;;;;;5033844;28;20215;-68
2023/02/23 06:00:12;;;;;;;49.33;39.50;;;12.60;99.90;;;;;;5033195;28;20432;-68
2023/02/23 06:02:38;;;;;;;50.97;37.97;;;12.60;99.90;;;;;;5031991;28;20456;-68
2023/02/23 06:05:05;;;;;;;48.70;38.27;;;12.50;99.90;;;;;;5032445;28;20434;-68
2023/02/23 06:07:30;;;;;;;51.17;41.60;;;12.50;99.90;;;;;;5031381;28;20433;-68
2023/02/23 06:09:56;;;;;;;53.67;38.50;;;12.50;99.90;;;;;;5032987;28;20430;-68
2023/02/23 06:12:22;;;;;;;50.80;38.70;;;12.60;99.90;;;;;;5032446;28;20220;-68
2023/02/23 06:14:49;;;;;;;55.40;37.80;;;12.60;99.90;;;;;;5032621;28;20597;-68
2023/02/23 06:17:15;;;;;;;51.40;40.40;;;12.60;99.90;;;;;;5033993;28;20448;-68
2023/02/23 06:19:41;;;;;;;57.40;41.30;;;12.50;99.90;;;;;;5030910;28;20425;-68
2023/02/23 06:22:07;;;;;;;57.03;39.50;;;12.50;99.90;;;;;;5033145;28;20473;-67
2023/02/23 06:24:33;;;;;;;56.93;40.20;;;12.50;99.90;;;;;;5032719;28;20784;-68
2023/02/23 06:26:59;;;;;;;50.33;39.50;;;12.50;99.90;;;;;;5031516;28;20172;-68
2023/02/23 06:29:25;;;;;;;51.10;38.27;;;12.40;99.90;;;;;;5032206;28;20629;-68
2023/02/23 06:31:51;;;;;;;56.70;39.20;;;12.40;99.90;;;;;;5032983;28;20416;-68
2023/02/23 06:34:17;;;;;;;53.50;37.90;;;12.40;99.90;;;;;;5031182;28;20419;-68
2023/02/23 06:36:43;;;;;;;50.33;39.30;;;12.40;99.90;;;;;;5032767;28;20194;-68
2023/02/23 06:39:10;;;;;;;56.57;40.13;;;12.40;99.90;;;;;;5031565;28;20430;-68
2023/02/23 06:41:36;;;;;;;52.70;41.07;;;12.40;99.90;;;;;;5031492;28;20483;-68
2023/02/23 06:44:03;;;;;;;59.20;41.90;;;12.30;99.90;;;;;;5030928;28;21005;-68
2023/02/23 06:46:29;;;;;;;53.90;39.90;;;12.30;99.90;;;;;;5030589;28;20429;-66
2023/02/23 06:48:56;;;;;;;56.90;41.30;;;12.30;99.90;;;;;;5029523;28;20490;-67
2023/02/23 06:51:22;;;;;;;55.97;40.60;;;12.40;99.90;;;;;;5031356;28;20489;-68
2023/02/23 06:53:48;;;;;;;54.13;39.00;;;12.40;99.90;;;;;;5030983;28;20433;-68
2023/02/23 06:56:14;;;;;;;57.47;38.87;;;12.40;99.90;;;;;;5026681;28;20905;-68
2023/02/23 06:58:42;;;;;;;53.80;38.60;;;12.40;99.90;;;;;;5032517;28;20204;-68
2023/02/23 07:01:08;;;;;;;54.03;40.67;;;12.40;99.90;;;;;;5031100;28;20496;-68
2023/02/23 07:03:34;;;;;;;48.90;37.20;;;12.40;99.90;;;;;;5031482;28;20425;-67
2023/02/23 07:06:03;;;;;;;51.50;36.30;;;12.40;99.90;;;;;;5033075;28;20398;-68
2023/02/23 07:08:29;;;;;;;49.17;36.37;;;12.40;99.90;;;;;;5040702;28;20428;-67
2023/02/23 07:10:56;;;;;;;46.83;37.33;;;12.40;99.90;;;;;;5028495;28;20796;-68
2023/02/23 07:13:22;;;;;;;49.50;35.90;;;12.50;99.90;;;;;;5033026;28;20173;-68
2023/02/23 07:15:48;;;;;;;46.47;35.50;;;12.40;99.90;;;;;;5028734;28;20956;-67
2023/02/23 07:18:14;;;;;;;47.47;35.20;;;12.50;99.90;;;;;;5025108;28;20184;-67
2023/02/23 07:20:40;;;;;;;47.37;35.77;;;12.40;99.90;;;;;;5032397;28;20422;-67
2023/02/23 07:23:05;;;;;;;48.53;35.87;;;12.50;99.90;;;;;;5036706;28;20475;-67
2023/02/23 07:25:31;;;;;;;41.80;32.80;;;12.50;99.90;;;;;;5035228;28;20181;-70
2023/02/23 07:27:57;;;;;;;41.47;32.57;;;12.60;99.90;;;;;;5052691;28;20177;-71
2023/02/23 07:30:24;;;;;;;40.70;32.80;;;13.00;99.90;;;;;;5029779;28;20713;-68
2023/02/23 07:32:50;;;;;;;39.70;30.53;;;13.30;99.90;;;;;;5037614;28;20442;-68
2023/02/23 07:35:16;;;;;;;41.17;33.47;;;13.60;99.90;;;;;;5040509;28;20442;-68
2023/02/23 07:37:42;;;;;;;40.30;31.63;;;13.90;99.90;;;;;;5030534;28;20487;-68
2023/02/23 07:40:09;;;;;;;42.53;32.00;;;14.20;99.90;;;;;;5039843;28;20516;-68
2023/02/23 07:42:34;;;;;;;42.67;33.60;;;14.40;99.90;;;;;;5034857;28;20554;-68
2023/02/23 07:45:00;;;;;;;42.50;33.27;;;14.60;99.90;;;;;;5038454;28;20506;-68
2023/02/23 07:47:30;;;;;;;47.07;34.07;;;14.80;99.90;;;;;;5042945;28;20184;-68
2023/02/23 07:50:01;;;;;;;46.53;33.80;;;15.00;99.90;;;;;;5041515;28;20652;-81
2023/02/23 07:52:27;;;;;;;50.83;34.87;;;15.10;99.90;;;;;;5043162;28;20439;-71
2023/02/23 07:54:53;;;;;;;46.60;34.33;;;15.20;99.90;;;;;;5042910;28;20460;-71
2023/02/23 07:57:19;;;;;;;45.87;33.90;;;15.30;99.90;;;;;;5044326;28;20556;-71
2023/02/23 07:59:47;;;;;;;44.77;33.80;;;15.40;99.90;;;;;;5040929;28;20429;-71
2023/02/23 08:02:13;;;;;;;45.77;32.50;;;15.50;99.90;;;;;;5046479;28;20515;-70
2023/02/23 08:04:39;;;;;;;46.07;33.23;;;15.60;99.90;;;;;;5049764;28;20431;-71
2023/02/23 08:07:06;;;;;;;47.53;32.70;;;15.70;99.90;;;;;;5046852;28;20497;-71
2023/02/23 08:09:33;;;;;;;45.93;33.93;;;15.80;99.90;;;;;;5046394;28;20191;-70
2023/02/23 08:12:02;;;;;;;44.13;34.97;;;15.90;99.90;;;;;;5044277;28;20467;-71
2023/02/23 08:14:28;;;;;;;43.40;32.70;;;15.90;99.90;;;;;;5047660;28;20906;-71
2023/02/23 08:16:54;;;;;;;47.37;33.83;;;15.90;99.90;;;;;;5044900;28;20462;-72
2023/02/23 08:19:21;;;;;;;42.73;32.43;;;16.00;99.90;;;;;;5051216;28;20175;-71
2023/02/23 08:21:48;;;;;;;41.70;33.30;;;16.00;99.90;;;;;;5055452;28;20618;-72
2023/02/23 08:24:14;;;;;;;46.83;33.93;;;16.00;99.90;;;;;;5056044;28;20926;-72
2023/02/23 08:26:41;;;;;;;41.50;32.20;;;16.00;99.90;;;;;;5039100;28;20412;-70
2023/02/23 08:29:07;;;;;;;44.90;33.60;;;16.10;99.90;;;;;;5026022;28;20459;-71
2023/02/23 08:31:33;;;;;;;41.47;31.13;;;16.10;99.90;;;;;;5036237;28;20506;-69
2023/02/23 08:33:59;;;;;;;45.17;33.43;;;16.20;99.90;;;;;;5044092;28;20570;-70
2023/02/23 08:36:27;;;;;;;435.53;321.90;;;16.20;99.90;;;;;;5031766;28;20878;-69
2023/02/23 08:38:53;;;;;;;203.73;134.80;;;16.20;99.90;;;;;;5030330;28;20556;-70
2023/02/23 08:41:19;;;;;;;222.27;150.67;;;16.20;99.90;;;;;;5034438;28;20986;-71
2023/02/23 08:43:45;;;;;;;82.47;55.53;;;16.30;99.90;;;;;;5024078;28;20183;-72
2023/02/23 08:46:11;;;;;;;45.13;34.40;;;16.30;99.90;;;;;;5035545;28;20432;-71
2023/02/23 08:48:39;;;;;;;48.10;35.23;;;16.30;99.90;;;;;;5035069;28;20415;-72
2023/02/23 08:51:05;;;;;;;47.40;33.23;;;16.30;99.90;;;;;;5034516;28;20977;-73
2023/02/23 08:53:31;;;;;;;46.80;33.37;;;16.30;99.90;;;;;;5035598;28;20414;-72
2023/02/23 08:56:04;;;;;;;49.00;34.63;;;16.40;99.90;;;;;;5034983;28;20504;-72
2023/02/23 08:58:31;;;;;;;51.50;34.60;;;16.40;99.90;;;;;;5035577;28;20165;-72
2023/02/23 09:00:57;;;;;;;47.90;35.27;;;16.40;99.90;;;;;;5034645;28;20914;-73
2023/02/23 09:03:25;;;;;;;46.43;34.67;;;16.40;99.90;;;;;;5035452;28;20503;-71
2023/02/23 09:05:51;;;;;;;49.93;34.47;;;16.40;99.90;;;;;;5042805;28;20408;-73
2023/02/23 09:08:17;;;;;;;47.10;33.40;;;16.40;99.90;;;;;;5035960;28;20412;-72
2023/02/23 09:10:42;;;;;;;46.30;31.60;;;16.40;99.90;;;;;;5033921;28;20776;-69
2023/02/23 09:13:11;;;;;;;48.17;34.27;;;16.20;99.90;;;;;;5033265;28;20437;-72
2023/02/23 09:15:38;;;;;;;47.10;32.73;;;15.90;99.90;;;;;;5034634;28;20171;-72
2023/02/23 09:18:13;;;;;;;46.57;33.17;;;15.70;99.90;;;;;;5035264;28;20482;-70
2023/02/23 09:20:43;;;;;;;48.23;32.30;;;15.40;99.90;;;;;;5034372;28;20424;-70
2023/02/23 09:23:10;;;;;;;47.77;34.53;;;15.20;99.90;;;;;;5034962;28;20491;-70
2023/02/23 09:25:43;;;;;;;43.93;32.90;;;14.90;99.90;;;;;;5034499;28;20408;-69
2023/02/23 09:28:14;;;;;;;47.50;31.83;;;14.70;99.90;;;;;;5034890;28;20440;-69
2023/02/23 09:30:42;;;;;;;45.33;32.60;;;14.50;99.90;;;;;;5032865;28;20442;-69
2023/02/23 09:33:08;;;;;;;50.33;36.33;;;14.40;99.90;;;;;;5031666;28;20434;-69
2023/02/23 09:35:35;;;;;;;47.80;34.07;;;14.20;99.90;;;;;;5033408;28;20425;-68
2023/02/23 09:38:02;;;;;;;44.00;33.50;;;14.10;99.90;;;;;;5033873;28;20472;-67
2023/02/23 09:40:51;;;;;;;45.27;32.60;;;14.00;99.90;;;;;;5032260;28;20465;-68
2023/02/23 09:43:36;;;;;;;43.00;33.37;;;13.80;99.90;;;;;;5031129;28;20465;-69
2023/02/23 09:46:29;;;;;;;45.57;30.93;;;13.70;99.90;;;;;;5024311;28;20425;-70
2023/02/23 09:48:57;;;;;;;43.90;33.07;;;13.60;99.90;;;;;;5033017;28;20425;-72
2023/02/23 09:51:24;;;;;;;41.37;30.87;;;13.50;99.90;;;;;;5034545;28;20408;-73
2023/02/23 09:53:53;;;;;;;45.50;32.17;;;13.40;99.90;;;;;;5030932;28;20427;-76
2023/02/23 09:56:33;;;;;;;45.40;31.47;;;13.30;99.90;;;;;;5049657;28;20436;-73
2023/02/23 09:59:00;;;;;;;41.00;29.83;;;13.20;99.90;;;;;;5031841;28;20926;-74
2023/02/23 10:01:48;;;;;;;38.73;30.83;;;13.20;99.90;;;;;;5027746;28;20863;-72
2023/02/23 10:04:25;;;;;;;37.00;28.40;;;13.10;99.90;;;;;;5012893;28;20776;-74
2023/02/23 10:07:05;;;;;;;38.50;26.87;;;13.10;99.90;;;;;;5013768;28;20467;-73
2023/02/23 10:09:42;;;;;;;394.17;248.10;;;13.00;99.90;;;;;;5014409;28;20395;-75
2023/02/23 10:12:23;;;;;;;500.70;347.43;;;13.40;99.90;;;;;;5027349;28;20441;-75
2023/02/23 10:14:55;;;;;;;45.67;34.70;;;13.90;99.90;;;;;;5032653;28;20486;-77
2023/02/23 10:17:52;;;;;;;32.80;26.40;;;14.40;99.90;;;;;;5034122;28;20429;-70
2023/02/23 10:20:27;;;;;;;35.70;28.23;;;14.80;99.90;;;;;;5033766;28;20398;-71
2023/02/23 10:22:57;;;;;;;30.83;26.70;;;15.40;99.90;;;;;;5032393;28;20459;-69
2023/02/23 10:25:29;;;;;;;31.80;24.23;;;15.90;99.90;;;;;;5032413;28;20407;-69
2023/02/23 10:27:57;;;;;;;30.30;23.90;;;16.30;99.90;;;;;;5033266;28;20427;-69
2023/02/23 10:30:31;;;;;;;34.93;24.67;;;16.70;99.90;;;;;;5033789;28;20408;-69
2023/02/23 10:33:36;;;;;;;29.53;25.03;;;17.00;99.90;;;;;;5033190;28;20406;-69
2023/02/23 10:36:16;;;;;;;24.63;21.97;;;17.40;99.90;;;;;;5033116;28;20394;-69
2023/02/23 10:38:41;;;;;;;23.40;19.60;;;17.60;99.90;;;;;;5033476;28;20389;-69
2023/02/23 10:41:08;;;;;;;22.73;19.63;;;17.70;99.90;;;;;;5031973;28;20491;-69
2023/02/23 10:43:34;;;;;;;26.17;21.87;;;17.90;99.90;;;;;;5033564;28;20269;-70
2023/02/23 10:46:01;;;;;;;23.17;19.97;;;18.00;99.90;;;;;;5033203;28;20753;-70
2023/02/23 10:48:35;;;;;;;23.57;21.13;;;18.00;99.90;;;;;;5033471;28;20170;-70
2023/02/23 10:51:04;;;;;;;29.70;25.20;;;18.00;99.90;;;;;;5031794;28;20821;-69
2023/02/23 10:53:35;;;;;;;30.40;26.80;;;18.00;99.90;;;;;;5033318;28;20397;-69
2023/02/23 10:56:06;;;;;;;27.77;24.77;;;18.00;99.90;;;;;;5031492;28;21140;-69
2023/02/23 10:58:40;;;;;;;26.10;21.50;;;18.00;99.90;;;;;;5033360;28;20868;-70
2023/02/23 11:01:07;;;;;;;23.97;20.90;;;17.90;99.90;;;;;;5033141;28;20401;-69
2023/02/23 11:03:40;;;;;;;32.10;25.90;;;17.90;99.90;;;;;;5032605;28;20417;-69
2023/02/23 11:06:27;;;;;;;33.30;25.57;;;17.90;99.90;;;;;;5032881;28;20397;-69
2023/02/23 11:08:52;;;;;;;28.57;24.90;;;17.80;99.90;;;;;;5032530;28;20396;-69
2023/02/23 11:11:24;;;;;;;30.40;26.70;;;17.70;99.90;;;;;;5031958;28;20433;-69
2023/02/23 11:13:51;;;;;;;30.40;24.93;;;17.50;99.90;;;;;;5032515;28;20163;-67
2023/02/23 11:16:24;;;;;;;27.33;21.53;;;17.30;99.90;;;;;;5032939;28;20410;-69
2023/02/23 11:19:00;;;;;;;98.50;70.90;;;17.20;99.90;;;;;;5032364;28;20402;-69
2023/02/23 11:21:37;;;;;;;44.23;35.63;;;17.10;99.90;;;;;;5036779;28;20441;-69
2023/02/23 11:24:32;;;;;;;35.00;28.53;;;17.10;99.90;;;;;;5038690;28;20668;-69
2023/02/23 11:27:05;;;;;;;31.17;25.50;;;17.20;99.90;;;;;;5042382;28;20632;-69
2023/02/23 11:29:41;;;;;;;30.10;23.47;;;17.20;99.90;;;;;;5042531;28;20786;-69
2023/02/23 11:32:21;;;;;;;35.57;27.37;;;17.20;99.90;;;;;;5039543;28;20398;-69
2023/02/23 11:35:07;;;;;;;35.70;28.13;;;17.20;99.90;;;;;;5039725;28;20390;-69
2023/02/23 11:37:35;;;;;;;36.80;29.53;;;17.10;99.90;;;;;;5039491;28;20443;-69
2023/02/23 11:40:16;;;;;;;32.40;26.17;;;17.10;99.90;;;;;;5037732;28;20492;-69
2023/02/23 11:43:06;;;;;;;36.17;28.30;;;17.10;99.90;;;;;;5040757;28;20534;-69
2023/02/23 11:45:45;;;;;;;35.80;25.00;;;17.20;99.90;;;;;;5039210;28;20456;-69
2023/02/23 11:48:24;;;;;;;30.40;24.00;;;17.30;99.90;;;;;;5038993;28;20393;-69
2023/02/23 11:50:51;;;;;;;32.10;25.13;;;17.30;99.90;;;;;;5040558;28;20487;-69
2023/02/23 11:53:27;;;;;;;32.60;23.70;;;17.30;99.90;;;;;;5042958;28;20416;-70
2023/02/23 11:55:54;;;;;;;32.30;24.30;;;17.30;99.90;;;;;;5040093;28;20749;-70
2023/02/23 11:58:48;;;;;;;322.77;199.80;;;17.10;99.90;;;;;;5041111;28;20409;-69
2023/02/23 12:01:34;;;;;;;48.10;34.97;;;17.00;99.90;;;;;;5042268;28;20409;-70
2023/02/23 12:04:01;;;;;;;35.70;28.00;;;16.70;99.90;;;;;;5034346;28;20401;-70
2023/02/23 12:06:39;;;;;;;33.97;25.30;;;16.40;99.90;;;;;;5039871;28;20417;-70
2023/02/23 12:09:24;;;;;;;34.33;25.30;;;16.40;99.90;;;;;;5038545;28;20428;-70
2023/02/23 12:11:58;;;;;;;33.40;24.83;;;16.50;99.90;;;;;;5037101;28;20935;-69
2023/02/23 12:14:36;;;;;;;32.90;26.37;;;16.60;99.90;;;;;;5040263;28;20412;-70
2023/02/23 12:17:18;;;;;;;32.03;25.40;;;16.80;99.90;;;;;;5034579;28;20752;-69
2023/02/23 12:20:09;;;;;;;36.50;27.43;;;16.90;99.90;;;;;;5033716;28;20444;-70
2023/02/23 12:22:41;;;;;;;28.50;23.53;;;17.00;99.90;;;;;;5042494;28;20837;-70
2023/02/23 12:25:44;;;;;;;27.67;22.80;;;17.10;99.90;;;;;;5041258;28;20409;-69
2023/02/23 12:28:26;;;;;;;29.70;24.67;;;17.20;99.90;;;;;;5039610;28;20516;-70
2023/02/23 12:31:34;;;;;;;30.67;24.00;;;17.20;99.90;;;;;;5040992;28;20443;-70
2023/02/23 12:34:11;;;;;;;35.37;24.07;;;17.30;99.90;;;;;;5033887;28;20836;-70
2023/02/23 12:36:46;;;;;;;27.40;22.70;;;17.40;99.90;;;;;;5042976;28;20392;-70
2023/02/23 12:39:20;;;;;;;32.17;25.00;;;17.50;99.90;;;;;;5043056;28;20995;-71
2023/02/23 12:42:19;;;;;;;30.00;22.97;;;17.50;99.90;;;;;;5037844;28;20948;-70
2023/02/23 12:44:56;;;;;;;29.07;22.43;;;17.60;99.90;;;;;;5039319;28;20497;-70
2023/02/23 12:47:48;;;;;;;30.23;23.13;;;17.60;99.90;;;;;;5042159;28;20404;-70
2023/02/23 12:50:34;;;;;;;33.97;27.90;;;17.60;99.90;;;;;;5041818;28;20428;-70
2023/02/23 12:53:27;;;;;;;29.57;23.40;;;17.70;99.90;;;;;;5043521;28;20401;-70
2023/02/23 12:56:32;;;;;;;33.03;22.80;;;17.70;99.90;;;;;;5041645;28;20411;-70
2023/02/23 12:59:20;;;;;;;29.17;23.33;;;17.60;99.90;;;;;;5032246;28;20428;-71
2023/02/23 13:01:55;;;;;;;30.33;23.40;;;17.70;99.70;;;;;;5045202;28;20460;-71
2023/02/23 13:04:21;;;;;;;29.77;23.20;;;17.80;98.20;;;;;;5046061;28;20414;-70
2023/02/23 13:07:17;;;;;;;31.70;22.23;;;17.70;98.80;;;;;;5045895;28;20454;-71
2023/02/23 13:10:08;;;;;;;30.80;23.03;;;17.70;98.60;;;;;;5040518;28;20427;-70
2023/02/23 13:13:04;;;;;;;39.30;23.70;;;17.70;99.20;;;;;;5042352;28;20409;-70
2023/02/23 13:15:48;;;;;;;33.07;23.97;;;17.70;98.60;;;;;;5040924;28;20397;-70
2023/02/23 13:18:32;;;;;;;44.97;23.43;;;17.80;97.80;;;;;;5042283;28;20504;-69
2023/02/23 13:21:14;;;;;;;33.80;21.90;;;17.70;98.30;;;;;;5042794;28;20397;-68
2023/02/23 13:23:54;;;;;;;28.60;21.83;;;17.80;97.70;;;;;;5044397;28;20431;-72
2023/02/23 13:26:26;;;;;;;29.73;22.27;;;17.70;96.70;;;;;;5043937;28;20413;-74
2023/02/23 13:29:30;;;;;;;106.23;67.63;;;17.70;97.20;;;;;;5039904;28;20408;-73
2023/02/23 13:31:58;;;;;;;121.53;80.53;;;17.60;95.20;;;;;;5041527;28;20455;-72
2023/02/23 13:34:28;;;;;;;777.60;613.93;;;17.50;97.30;;;;;;5046012;28;20520;-73
2023/02/23 13:36:55;;;;;;;58.17;43.23;;;17.30;95.90;;;;;;5040158;28;20401;-72
2023/02/23 13:39:39;;;;;;;31.00;23.20;;;17.30;96.40;;;;;;5043808;28;20425;-71
2023/02/23 13:42:19;;;;;;;25.77;19.47;;;17.20;96.20;;;;;;5058944;28;21069;-71
2023/02/23 13:44:53;;;;;;;26.87;21.10;;;17.10;96.70;;;;;;5043160;28;20766;-71
2023/02/23 13:47:40;;;;;;;29.17;20.80;;;17.10;97.60;;;;;;5043820;28;20892;-71
2023/02/23 13:50:21;;;;;;;28.17;21.00;;;17.00;98.00;;;;;;5041430;28;20444;-71
2023/02/23 13:52:47;;;;;;;31.67;22.13;;;17.00;97.00;;;;;;5042991;28;20488;-71
2023/02/23 13:55:25;;;;;;;28.30;22.93;;;16.90;97.60;;;;;;5044959;28;20516;-71
2023/02/23 13:58:15;;;;;;;25.50;21.10;;;16.90;97.70;;;;;;5040530;28;20436;-71
2023/02/23 14:00:42;;;;;;;29.33;20.63;;;16.80;97.20;;;;;;5043140;28;20877;-71
2023/02/23 14:03:22;;;;;;;27.40;22.73;;;16.80;98.20;;;;;;5042206;28;20476;-71
2023/02/23 14:05:53;;;;;;;24.17;20.80;;;16.80;97.50;;;;;;5042577;28;20754;-71
2023/02/23 14:08:38;;;;;;;25.97;20.40;;;16.70;98.40;;;;;;5045570;28;20405;-71